createdAt,value
2023-01-19T00:00:30.293Z,6.18
2023-01-19T00:02:56.962Z,4.18
2023-01-19T00:05:23.531Z,4.38
2023-01-19T00:07:50.132Z,7.20
2023-01-19T00:10:17.201Z,6.40
2023-01-19T00:12:43.826Z,6.45
2023-01-19T00:15:11.172Z,7.15
2023-01-19T00:17:37.814Z,6.63
2023-01-19T00:20:04.824Z,6.82
2023-01-19T00:22:31.418Z,6.85
2023-01-19T00:24:57.989Z,6.22
2023-01-19T00:27:24.919Z,7.00
2023-01-19T00:29:51.596Z,6.65
2023-01-19T00:32:19.713Z,5.90
2023-01-19T00:34:49.491Z,6.07
2023-01-19T00:37:17.042Z,6.65
2023-01-19T00:39:43.770Z,7.05
2023-01-19T00:42:32.141Z,6.70
2023-01-19T00:44:58.752Z,7.32
2023-01-19T00:47:25.758Z,7.07
2023-01-19T00:49:52.397Z,7.13
2023-01-19T00:52:19.501Z,6.60
2023-01-19T00:54:46.315Z,6.65
2023-01-19T00:57:12.950Z,7.82
2023-01-19T00:59:39.686Z,7.72
2023-01-19T01:02:06.672Z,7.88
2023-01-19T01:04:33.835Z,6.90
2023-01-19T01:07:00.429Z,7.60
2023-01-19T01:09:27.555Z,7.80
2023-01-19T01:11:54.474Z,7.25
2023-01-19T01:14:21.161Z,7.40
2023-01-19T01:16:47.883Z,7.57
2023-01-19T01:19:14.521Z,8.40
2023-01-19T01:21:41.566Z,7.80
2023-01-19T01:24:09.470Z,7.15
2023-01-19T01:26:36.237Z,8.18
2023-01-19T01:29:02.838Z,6.43
2023-01-19T01:31:29.811Z,7.60
2023-01-19T01:33:56.424Z,7.05
2023-01-19T01:36:23.128Z,6.00
2023-01-19T01:38:50.842Z,7.45
2023-01-19T01:41:17.475Z,7.68
2023-01-19T01:43:50.817Z,7.68
2023-01-19T01:46:17.803Z,8.25
2023-01-19T01:48:49.695Z,8.25
2023-01-19T01:51:25.736Z,8.15
2023-01-19T01:54:22.945Z,7.30
2023-01-19T01:56:52.423Z,7.70
2023-01-19T01:59:26.375Z,7.50
2023-01-19T02:02:17.825Z,7.88
2023-01-19T02:04:52.962Z,6.63
2023-01-19T02:07:48.793Z,7.40
2023-01-19T02:10:34.368Z,7.57
2023-01-19T02:13:18.229Z,6.57
2023-01-19T02:15:45.449Z,7.25
2023-01-19T02:18:12.168Z,7.07
2023-01-19T02:20:41.727Z,6.65
2023-01-19T02:23:15.589Z,6.07
2023-01-19T02:25:42.613Z,6.82
2023-01-19T02:28:09.536Z,5.65
2023-01-19T02:30:40.117Z,7.15
2023-01-19T02:33:07.107Z,5.10
2023-01-19T02:35:35.943Z,5.65
2023-01-19T02:38:04.300Z,6.95
2023-01-19T02:40:31.265Z,8.00
2023-01-19T02:43:00.905Z,7.53
2023-01-19T02:45:28.637Z,7.32
2023-01-19T02:47:55.222Z,7.38
2023-01-19T02:50:49.702Z,6.35
2023-01-19T02:53:47.458Z,6.80
2023-01-19T02:56:26.559Z,6.22
2023-01-19T02:59:09.419Z,7.07
2023-01-19T03:01:42.053Z,7.35
2023-01-19T03:04:28.470Z,7.25
2023-01-19T03:07:26.548Z,6.63
2023-01-19T03:10:07.595Z,8.00
2023-01-19T03:12:54.336Z,7.15
2023-01-19T03:15:27.353Z,7.15
2023-01-19T03:17:54.603Z,7.75
2023-01-19T03:20:25.354Z,7.15
2023-01-19T03:23:00.520Z,7.85
2023-01-19T03:25:31.208Z,6.93
2023-01-19T03:27:58.019Z,7.22
2023-01-19T03:30:29.265Z,6.30
2023-01-19T03:33:09.376Z,8.40
2023-01-19T03:35:39.245Z,6.13
2023-01-19T03:38:10.268Z,8.00
2023-01-19T03:40:37.209Z,7.57
2023-01-19T03:43:05.210Z,6.82
2023-01-19T03:45:33.754Z,8.60
2023-01-19T03:48:00.372Z,7.57
2023-01-19T03:50:30.148Z,8.23
2023-01-19T03:53:08.271Z,8.50
2023-01-19T03:55:37.137Z,7.72
2023-01-19T03:58:03.801Z,7.80
2023-01-19T04:00:30.974Z,7.55
2023-01-19T04:02:57.689Z,7.35
2023-01-19T04:05:24.421Z,7.90
2023-01-19T04:07:52.188Z,6.97
2023-01-19T04:10:19.470Z,8.95
2023-01-19T04:12:46.097Z,8.10
2023-01-19T04:15:13.269Z,7.57
2023-01-19T04:17:40.550Z,9.50
2023-01-19T04:20:07.923Z,8.10
2023-01-19T04:22:35.340Z,9.43
2023-01-19T04:25:02.957Z,7.72
2023-01-19T04:27:29.613Z,8.98
2023-01-19T04:29:56.354Z,6.95
2023-01-19T04:32:22.957Z,7.40
2023-01-19T04:34:49.559Z,9.25
2023-01-19T04:37:16.146Z,8.98
2023-01-19T04:39:42.722Z,8.98
2023-01-19T04:42:09.415Z,10.35
2023-01-19T04:44:35.989Z,9.35
2023-01-19T04:47:03.306Z,9.23
2023-01-19T04:49:30.011Z,10.48
2023-01-19T04:51:56.624Z,9.30
2023-01-19T04:54:23.254Z,9.52
2023-01-19T04:56:50.354Z,9.57
2023-01-19T04:59:17.013Z,9.77
2023-01-19T05:01:43.631Z,10.05
2023-01-19T05:04:10.280Z,10.15
2023-01-19T05:06:37.190Z,8.63
2023-01-19T05:09:04.974Z,9.65
2023-01-19T05:11:31.554Z,8.75
2023-01-19T05:13:58.309Z,7.93
2023-01-19T05:16:25.302Z,8.48
2023-01-19T05:18:52.413Z,8.38
2023-01-19T05:21:19.088Z,6.93
2023-01-19T05:23:45.818Z,7.03
2023-01-19T05:26:12.798Z,7.13
2023-01-19T05:28:39.464Z,7.18
2023-01-19T05:31:06.581Z,7.53
2023-01-19T05:33:33.245Z,7.15
2023-01-19T05:35:59.831Z,6.97
2023-01-19T05:38:34.985Z,5.80
2023-01-19T05:41:02.332Z,5.90
2023-01-19T05:43:28.996Z,5.00
2023-01-19T05:45:55.640Z,4.95
2023-01-19T05:48:22.315Z,4.60
2023-01-19T05:50:49.507Z,3.95
2023-01-19T05:53:17.065Z,4.45
2023-01-19T05:55:43.703Z,4.40
2023-01-19T05:58:10.347Z,4.05
2023-01-19T06:00:36.982Z,3.70
2023-01-19T06:03:04.352Z,3.80
2023-01-19T06:05:31.216Z,4.13
2023-01-19T06:07:57.886Z,3.50
2023-01-19T06:10:24.524Z,4.10
2023-01-19T06:12:52.358Z,3.80
2023-01-19T06:15:19.309Z,4.22
2023-01-19T06:17:45.909Z,4.57
2023-01-19T06:20:13.936Z,4.93
2023-01-19T06:22:40.631Z,6.93
2023-01-19T06:25:07.546Z,7.20
2023-01-19T06:27:34.314Z,10.05
2023-01-19T06:30:00.882Z,10.68
2023-01-19T06:32:27.530Z,10.05
2023-01-19T06:34:54.272Z,8.50
2023-01-19T06:37:21.162Z,7.60
2023-01-19T06:39:47.774Z,7.10
2023-01-19T06:42:14.407Z,7.28
2023-01-19T06:44:47.147Z,7.18
2023-01-19T06:47:16.333Z,6.93
2023-01-19T06:49:43.654Z,6.53
2023-01-19T06:52:11.458Z,7.57
2023-01-19T06:54:38.168Z,6.35
2023-01-19T06:57:04.835Z,6.90
2023-01-19T06:59:31.913Z,5.57
2023-01-19T07:01:58.892Z,6.80
2023-01-19T07:04:26.915Z,6.78
2023-01-19T07:06:53.702Z,5.97
2023-01-19T07:09:20.512Z,7.57
2023-01-19T07:11:48.313Z,7.30
2023-01-19T07:14:15.442Z,6.97
2023-01-19T07:16:42.322Z,6.03
2023-01-19T07:19:10.737Z,8.68
2023-01-19T07:21:37.439Z,9.63
2023-01-19T07:24:04.152Z,8.88
2023-01-19T07:26:30.830Z,8.30
2023-01-19T07:28:57.502Z,10.32
2023-01-19T07:31:24.499Z,9.48
2023-01-19T07:33:51.268Z,8.88
2023-01-19T07:36:17.929Z,8.07
2023-01-19T07:38:44.626Z,7.68
2023-01-19T07:41:11.636Z,7.07
2023-01-19T07:43:38.412Z,8.10
2023-01-19T07:46:06.671Z,6.70
2023-01-19T07:48:33.692Z,7.72
2023-01-19T07:51:01.801Z,8.20
2023-01-19T07:53:28.435Z,7.68
2023-01-19T07:55:58.067Z,8.20
2023-01-19T07:58:25.265Z,8.32
2023-01-19T08:00:52.321Z,7.80
2023-01-19T08:03:19.247Z,9.05
2023-01-19T08:05:51.472Z,8.30
2023-01-19T08:08:18.659Z,9.55
2023-01-19T08:10:46.164Z,9.45
2023-01-19T08:13:12.747Z,8.90
2023-01-19T08:15:39.415Z,8.90
2023-01-19T08:18:06.795Z,7.82
2023-01-19T08:20:33.446Z,7.90
2023-01-19T08:23:01.196Z,8.40
2023-01-19T08:25:57.503Z,7.63
2023-01-19T08:28:24.166Z,8.25
2023-01-19T08:30:54.456Z,10.60
2023-01-19T08:33:25.170Z,8.98
2023-01-19T08:35:53.407Z,11.05
2023-01-19T08:38:20.199Z,9.85
2023-01-19T08:40:46.881Z,10.60
2023-01-19T08:43:16.376Z,11.13
2023-01-19T08:45:49.015Z,10.63
2023-01-19T08:48:17.493Z,11.68
2023-01-19T08:50:46.965Z,12.35
2023-01-19T08:53:14.363Z,13.32
2023-01-19T08:55:41.328Z,12.65
2023-01-19T08:58:11.368Z,11.98
2023-01-19T09:00:39.449Z,13.10
2023-01-19T09:03:08.920Z,12.13
2023-01-19T09:05:38.741Z,11.95
2023-01-19T09:08:09.052Z,11.65
2023-01-19T09:10:37.665Z,12.32
2023-01-19T09:13:05.184Z,11.45
2023-01-19T09:15:35.560Z,12.48
2023-01-19T09:18:03.146Z,12.13
2023-01-19T09:20:31.145Z,14.35
2023-01-19T09:22:58.298Z,12.60
2023-01-19T09:25:25.421Z,15.45
2023-01-19T09:27:52.824Z,14.30
2023-01-19T09:30:19.761Z,14.93
2023-01-19T09:32:46.361Z,16.55
2023-01-19T09:35:13.237Z,16.42
2023-01-19T09:37:39.841Z,16.83
2023-01-19T09:40:07.315Z,17.10
2023-01-19T09:42:48.591Z,17.63
2023-01-19T09:45:26.465Z,18.20
2023-01-19T09:47:54.410Z,18.02
2023-01-19T09:50:35.618Z,18.83
2023-01-19T09:53:15.048Z,21.15
2023-01-19T09:55:42.565Z,19.10
2023-01-19T09:58:13.708Z,18.30
2023-01-19T10:00:42.821Z,19.75
2023-01-19T10:03:17.043Z,17.90
2023-01-19T10:06:01.185Z,20.45
2023-01-19T10:08:36.591Z,16.77
2023-01-19T10:11:06.556Z,18.00
2023-01-19T10:13:49.580Z,18.45
2023-01-19T10:16:37.601Z,20.15
2023-01-19T10:19:19.387Z,16.52
2023-01-19T10:21:47.759Z,17.58
2023-01-19T10:24:38.473Z,16.02
2023-01-19T10:27:15.312Z,16.00
2023-01-19T10:29:42.075Z,16.25
2023-01-19T10:32:17.340Z,14.90
2023-01-19T10:34:44.294Z,14.68
2023-01-19T10:37:34.142Z,14.60
2023-01-19T10:40:30.740Z,14.43
2023-01-19T10:42:57.902Z,14.95
2023-01-19T10:45:30.008Z,15.50
2023-01-19T10:48:00.896Z,15.13
2023-01-19T10:50:37.042Z,16.08
2023-01-19T10:53:07.997Z,14.93
2023-01-19T10:55:40.333Z,16.27
2023-01-19T10:58:26.871Z,18.50
2023-01-19T11:00:53.784Z,16.58
2023-01-19T11:03:32.255Z,17.40
2023-01-19T11:06:23.248Z,18.52
2023-01-19T11:08:51.746Z,20.05
2023-01-19T11:11:20.481Z,16.00
2023-01-19T11:14:04.577Z,17.25
2023-01-19T11:16:34.682Z,17.10
2023-01-19T11:19:03.100Z,18.05
2023-01-19T11:21:32.285Z,16.05
2023-01-19T11:24:05.331Z,16.05
2023-01-19T11:26:47.786Z,15.43
2023-01-19T11:29:27.261Z,16.00
2023-01-19T11:31:55.261Z,14.63
2023-01-19T11:34:40.145Z,14.48
2023-01-19T11:37:27.427Z,14.98
2023-01-19T11:39:59.807Z,14.75
2023-01-19T11:42:29.845Z,14.38
2023-01-19T11:45:03.122Z,16.10
2023-01-19T11:47:45.774Z,13.20
2023-01-19T11:50:42.106Z,14.63
2023-01-19T11:53:24.894Z,12.45
2023-01-19T11:55:57.793Z,15.45
2023-01-19T11:58:25.549Z,15.40
2023-01-19T12:01:20.848Z,12.25
2023-01-19T12:04:13.103Z,14.23
2023-01-19T12:07:03.030Z,12.93
2023-01-19T12:09:53.008Z,14.00
2023-01-19T12:12:28.686Z,18.17
2023-01-19T12:15:04.290Z,18.60
2023-01-19T12:17:40.199Z,18.52
2023-01-19T12:20:24.888Z,15.30
2023-01-19T12:23:04.538Z,13.93
2023-01-19T12:25:49.646Z,13.65
2023-01-19T12:28:18.505Z,13.43
2023-01-19T12:30:51.990Z,12.27
2023-01-19T12:33:34.168Z,13.35
2023-01-19T12:36:33.830Z,15.98
2023-01-19T12:39:15.710Z,15.93
2023-01-19T12:41:43.301Z,18.40
2023-01-19T12:44:10.022Z,16.55
2023-01-19T12:46:46.914Z,14.00
2023-01-19T12:49:19.460Z,14.32
2023-01-19T12:51:46.941Z,13.57
2023-01-19T12:54:50.001Z,13.23
2023-01-19T12:57:48.555Z,15.88
2023-01-19T13:00:24.451Z,13.82
2023-01-19T13:02:59.871Z,13.32
2023-01-19T13:05:33.474Z,12.30
2023-01-19T13:08:03.066Z,11.60
2023-01-19T13:11:05.005Z,10.63
2023-01-19T13:13:33.186Z,11.38
2023-01-19T13:16:19.962Z,9.82
2023-01-19T13:18:54.439Z,10.25
2023-01-19T13:21:36.168Z,11.75
2023-01-19T13:24:16.437Z,9.60
2023-01-19T13:26:53.162Z,10.95
2023-01-19T13:29:35.323Z,12.23
2023-01-19T13:32:15.853Z,9.38
2023-01-19T13:34:51.514Z,13.05
2023-01-19T13:37:21.772Z,10.02
2023-01-19T13:39:52.178Z,11.63
2023-01-19T13:42:34.592Z,11.98
2023-01-19T13:45:06.946Z,12.07
2023-01-19T13:47:46.192Z,11.23
2023-01-19T13:50:21.863Z,12.35
2023-01-19T13:52:53.846Z,11.55
2023-01-19T13:55:21.515Z,11.68
2023-01-19T13:57:50.306Z,12.93
2023-01-19T14:00:26.405Z,10.75
2023-01-19T14:03:23.402Z,11.73
2023-01-19T14:05:54.441Z,9.48
2023-01-19T14:08:22.141Z,10.02
2023-01-19T14:10:56.116Z,10.77
2023-01-19T14:13:25.742Z,11.93
2023-01-19T14:15:55.789Z,11.45
2023-01-19T14:18:24.694Z,11.55
2023-01-19T14:21:07.665Z,10.32
2023-01-19T14:23:54.872Z,12.85
2023-01-19T14:26:43.062Z,12.50
2023-01-19T14:29:34.701Z,13.02
2023-01-19T14:32:14.558Z,12.38
2023-01-19T14:34:45.887Z,10.27
2023-01-19T14:37:28.968Z,11.82
2023-01-19T14:39:58.068Z,10.65
2023-01-19T14:42:28.693Z,11.00
2023-01-19T14:44:57.141Z,10.52
2023-01-19T14:47:39.682Z,7.82
2023-01-19T14:50:18.553Z,12.20
2023-01-19T14:53:01.462Z,9.13
2023-01-19T14:55:39.563Z,8.95
2023-01-19T14:58:13.863Z,9.52
2023-01-19T15:00:41.927Z,9.70
2023-01-19T15:03:09.882Z,8.88
2023-01-19T15:05:41.241Z,7.95
2023-01-19T15:08:10.939Z,10.05
2023-01-19T15:10:37.563Z,10.63
2023-01-19T15:13:04.795Z,7.60
2023-01-19T15:15:33.296Z,8.65
2023-01-19T15:18:04.682Z,8.02
2023-01-19T15:20:31.284Z,5.60
2023-01-19T15:22:57.841Z,8.27
2023-01-19T15:25:27.700Z,8.68
2023-01-19T15:27:58.712Z,8.15
2023-01-19T15:30:33.502Z,9.25
2023-01-19T15:33:00.228Z,9.90
2023-01-19T15:35:26.793Z,6.95
2023-01-19T15:37:53.369Z,8.65
2023-01-19T15:40:22.555Z,8.70
2023-01-19T15:42:49.873Z,7.35
2023-01-19T15:45:25.357Z,7.55
2023-01-19T15:47:51.947Z,8.43
2023-01-19T15:50:19.942Z,10.60
2023-01-19T15:52:46.662Z,11.30
2023-01-19T15:55:15.716Z,10.75
2023-01-19T15:57:42.290Z,11.57
2023-01-19T16:00:09.742Z,10.77
2023-01-19T16:02:37.494Z,11.40
2023-01-19T16:05:04.728Z,12.02
2023-01-19T16:07:32.667Z,11.13
2023-01-19T16:09:59.348Z,11.18
2023-01-19T16:12:26.010Z,12.10
2023-01-19T16:14:52.614Z,9.48
2023-01-19T16:17:20.039Z,10.38
2023-01-19T16:19:47.803Z,10.15
2023-01-19T16:22:14.376Z,11.48
2023-01-19T16:24:41.022Z,7.03
2023-01-19T16:27:08.753Z,8.60
2023-01-19T16:29:35.346Z,7.47
2023-01-19T16:32:01.958Z,9.05
2023-01-19T16:34:28.684Z,8.45
2023-01-19T16:36:55.302Z,8.15
2023-01-19T16:39:21.879Z,9.27
2023-01-19T16:41:48.503Z,8.18
2023-01-19T16:44:17.043Z,9.27
2023-01-19T16:46:45.688Z,8.13
2023-01-19T16:49:18.671Z,10.35
2023-01-19T16:51:45.781Z,9.73
2023-01-19T16:54:20.955Z,9.65
2023-01-19T16:56:48.574Z,7.72
2023-01-19T16:59:17.051Z,11.52
2023-01-19T17:01:44.929Z,9.88
2023-01-19T17:04:14.856Z,14.13
2023-01-19T17:06:41.886Z,8.05
2023-01-19T17:09:09.360Z,7.18
2023-01-19T17:11:36.658Z,8.68
2023-01-19T17:14:06.146Z,11.50
2023-01-19T17:16:33.914Z,12.38
2023-01-19T17:19:02.234Z,12.60
2023-01-19T17:21:29.358Z,8.45
2023-01-19T17:23:57.402Z,11.93
2023-01-19T17:26:25.723Z,13.70
2023-01-19T17:28:52.363Z,13.57
2023-01-19T17:31:21.309Z,12.45
2023-01-19T17:33:49.759Z,11.25
2023-01-19T17:36:22.532Z,11.73
2023-01-19T17:38:49.885Z,12.88
2023-01-19T17:41:17.471Z,11.07
2023-01-19T17:43:44.673Z,14.23
2023-01-19T17:46:12.040Z,12.82
2023-01-19T17:48:39.444Z,13.13
2023-01-19T17:51:11.809Z,13.32
2023-01-19T17:53:40.074Z,7.60
2023-01-19T17:56:09.384Z,11.02
2023-01-19T17:58:36.523Z,9.25
2023-01-19T18:01:17.211Z,8.85
2023-01-19T18:03:44.398Z,6.45
2023-01-19T18:06:11.448Z,9.40
2023-01-19T18:08:39.406Z,7.38
2023-01-19T18:11:06.353Z,7.97
2023-01-19T18:13:33.069Z,8.25
2023-01-19T18:16:08.489Z,9.10
2023-01-19T18:18:36.179Z,11.68
2023-01-19T18:21:06.641Z,11.32
2023-01-19T18:23:33.643Z,9.27
2023-01-19T18:26:05.308Z,7.72
2023-01-19T18:28:32.805Z,8.25
2023-01-19T18:30:59.787Z,10.15
2023-01-19T18:33:27.957Z,9.13
2023-01-19T18:35:54.663Z,10.00
2023-01-19T18:38:21.554Z,9.20
2023-01-19T18:40:48.117Z,9.20
2023-01-19T18:43:15.037Z,8.85
2023-01-19T18:45:41.853Z,7.63
2023-01-19T18:48:09.203Z,7.85
2023-01-19T18:50:37.229Z,6.28
2023-01-19T18:53:03.829Z,9.82
2023-01-19T18:55:30.455Z,11.35
2023-01-19T18:57:57.083Z,11.55
2023-01-19T19:00:23.690Z,14.75
2023-01-19T19:02:50.400Z,10.55
2023-01-19T19:05:17.024Z,12.10
2023-01-19T19:07:43.673Z,9.82
2023-01-19T19:10:11.047Z,15.75
2023-01-19T19:12:37.829Z,13.30
2023-01-19T19:15:04.746Z,16.90
2023-01-19T19:17:31.561Z,19.95
2023-01-19T19:19:58.215Z,17.77
2023-01-19T19:22:25.629Z,15.55
2023-01-19T19:24:52.421Z,10.80
2023-01-19T19:27:19.002Z,8.30
2023-01-19T19:29:48.820Z,8.38
2023-01-19T19:32:20.301Z,5.25
2023-01-19T19:34:52.522Z,8.18
2023-01-19T19:37:20.056Z,9.13
2023-01-19T19:39:48.088Z,9.13
2023-01-19T19:42:14.783Z,16.05
2023-01-19T19:44:41.546Z,12.75
2023-01-19T19:47:08.285Z,18.05
2023-01-19T19:49:34.864Z,20.73
2023-01-19T19:52:01.449Z,21.67
2023-01-19T19:54:31.125Z,22.58
2023-01-19T19:56:57.862Z,20.30
2023-01-19T19:59:24.433Z,23.17
2023-01-19T20:01:53.581Z,26.33
2023-01-19T20:04:22.641Z,27.77
2023-01-19T20:06:49.546Z,29.40
2023-01-19T20:09:16.849Z,29.45
2023-01-19T20:11:46.511Z,19.67
2023-01-19T20:14:14.210Z,22.95
2023-01-19T20:16:40.850Z,29.10
2023-01-19T20:19:07.735Z,25.27
2023-01-19T20:21:36.914Z,31.25
2023-01-19T20:24:07.700Z,22.67
2023-01-19T20:26:38.859Z,24.67
2023-01-19T20:29:10.163Z,19.00
2023-01-19T20:31:41.931Z,21.35
2023-01-19T20:34:10.276Z,26.50
2023-01-19T20:36:37.868Z,22.95
2023-01-19T20:39:10.015Z,25.10
2023-01-19T20:41:43.249Z,26.55
2023-01-19T20:44:15.485Z,25.23
2023-01-19T20:46:42.527Z,20.90
2023-01-19T20:49:09.113Z,21.33
2023-01-19T20:51:37.303Z,19.55
2023-01-19T20:54:04.278Z,19.65
2023-01-19T20:56:30.895Z,20.38
2023-01-19T20:58:58.824Z,20.13
2023-01-19T21:01:26.001Z,14.73
2023-01-19T21:03:52.950Z,16.35
2023-01-19T21:06:20.516Z,22.27
2023-01-19T21:08:49.884Z,24.77
2023-01-19T21:11:19.614Z,26.13
2023-01-19T21:13:51.233Z,19.58
2023-01-19T21:16:17.889Z,18.67
2023-01-19T21:18:44.498Z,19.08
2023-01-19T21:21:28.372Z,20.38
2023-01-19T21:23:57.720Z,22.92
2023-01-19T21:26:24.421Z,27.88
2023-01-19T21:28:51.077Z,20.73
2023-01-19T21:31:18.060Z,25.70
2023-01-19T21:33:45.035Z,22.75
2023-01-19T21:36:11.677Z,22.08
2023-01-19T21:38:39.286Z,17.60
2023-01-19T21:41:11.885Z,24.48
2023-01-19T21:43:41.602Z,29.55
2023-01-19T21:46:20.050Z,27.55
2023-01-19T21:48:47.227Z,14.57
2023-01-19T21:51:14.975Z,12.07
2023-01-19T21:53:41.844Z,14.95
2023-01-19T21:56:10.585Z,21.35
2023-01-19T21:58:37.272Z,14.85
2023-01-19T22:01:13.635Z,19.95
2023-01-19T22:03:41.712Z,16.13
2023-01-19T22:06:14.481Z,22.30
2023-01-19T22:08:41.750Z,25.73
2023-01-19T22:11:11.430Z,23.08
2023-01-19T22:13:39.008Z,25.15
2023-01-19T22:16:11.894Z,24.52
2023-01-19T22:18:40.079Z,21.17
2023-01-19T22:21:12.041Z,17.58
2023-01-19T22:23:39.468Z,14.48
2023-01-19T22:26:07.036Z,15.48
2023-01-19T22:28:34.177Z,13.90
2023-01-19T22:31:12.525Z,13.90
2023-01-19T22:33:39.836Z,12.75
2023-01-19T22:36:30.288Z,12.57
2023-01-19T22:38:59.305Z,13.20
2023-01-19T22:41:29.106Z,13.75
2023-01-19T22:43:58.594Z,12.55
2023-01-19T22:46:27.539Z,14.05
2023-01-19T22:48:54.679Z,13.38
2023-01-19T22:51:22.814Z,12.45
2023-01-19T22:53:49.716Z,11.35
2023-01-19T22:56:18.905Z,12.95
2023-01-19T22:58:46.141Z,13.25
2023-01-19T23:01:15.580Z,12.95
2023-01-19T23:03:42.374Z,13.63
2023-01-19T23:06:11.445Z,14.30
2023-01-19T23:08:38.743Z,11.70
2023-01-19T23:11:15.141Z,14.55
2023-01-19T23:13:42.061Z,12.30
2023-01-19T23:16:09.721Z,13.63
2023-01-19T23:18:36.480Z,12.80
2023-01-19T23:21:04.395Z,14.40
2023-01-19T23:23:31.449Z,12.60
2023-01-19T23:26:06.228Z,12.48
2023-01-19T23:28:36.789Z,12.95
2023-01-19T23:31:16.517Z,13.77
2023-01-19T23:33:44.123Z,13.13
2023-01-19T23:36:11.900Z,13.52
2023-01-19T23:38:39.115Z,12.43
2023-01-19T23:41:05.774Z,14.75
2023-01-19T23:43:32.711Z,14.82
2023-01-19T23:46:03.995Z,14.35
2023-01-19T23:48:30.632Z,13.15
2023-01-19T23:50:57.372Z,13.90
2023-01-19T23:53:24.062Z,13.30
2023-01-19T23:55:50.654Z,14.48
2023-01-19T23:58:17.242Z,14.98
